Flight Track Log - Related Links

Times and Time Zones

All times are in EDT time to prevent confusion due to time zone crossing. See the NDU77 flight status page for this flight to view local times or setup timezone preferences in your user account.

Time Position Orientation Groundspeed Altitude Reporting Facility
EDT Latitude Longitude Course Direction KTS MPH feet Rate Location/Type
Mon 09:53:42 AM 47.6608 -97.3333 195° South 102 117 6,800  Level Minneapolis Center
Mon 09:54:43 AM 47.6344 -97.3439 195° South 102 117 7,200 400 Climbing Minneapolis Center
Mon 09:55:12 AM 47.6239 -97.3489 198° South 100 115 7,400 300 Climbing Minneapolis Center
Mon 09:55:43 AM 47.6081 -97.3572 200° South 98 113 7,500 295 Climbing Minneapolis Center
Mon 09:56:13 AM 47.5981 -97.3658 210° Southwest 99 114 7,700 393 Climbing Minneapolis Center
Mon 09:56:44 AM 47.5844 -97.3764 208° Southwest 98 113 7,900 393 Climbing Minneapolis Center
Mon 09:57:14 AM 47.5711 -97.3844 202° Southwest 99 114 8,100 295 Climbing Minneapolis Center
Mon 09:57:45 AM 47.5581 -97.3897 195° South 99 114 8,200 290 Climbing Minneapolis Center
Mon 09:58:16 AM 47.5439 -97.3967 198° South 99 114 8,400 333 Climbing Minneapolis Center
Mon 09:58:39 AM 47.5339 -97.4028 202° Southwest 100 115 8,500 98 Climbing Minneapolis Center
Mon 09:59:17 AM 47.5203 -97.4161 213° Southwest 99 114 8,500 -60 Level Minneapolis Center
Mon 10:00:19 AM 47.4900 -97.4322 200° South 107 123 8,400  Descending Minneapolis Center
Mon 10:01:20 AM 47.4619 -97.4453 197° South 104 120 8,500 49 Climbing Minneapolis Center
Mon 10:02:21 AM 47.4333 -97.4553 193° South 106 122 8,500 -49 Level Minneapolis Center
Mon 10:03:23 AM 47.4053 -97.4733 204° Southwest 108 124 8,400 -49 Descending Minneapolis Center
Mon 10:04:24 AM 47.3803 -97.4975 213° Southwest 106 122 8,400 49 Level Minneapolis Center
Mon 10:05:25 AM 47.3561 -97.5206 213° Southwest 103 119 8,500 49 Climbing Minneapolis Center
Mon 10:06:27 AM 47.3286 -97.5286 191° South 104 120 8,500 49 Level Minneapolis Center
Mon 10:07:28 AM 47.3033 -97.5469 206° Southwest 101 116 8,600 49 Climbing Minneapolis Center
Mon 10:08:29 AM 47.2772 -97.5639 204° Southwest 99 114 8,600 -49 Level Minneapolis Center
Mon 10:09:31 AM 47.2486 -97.5717 190° South 104 120 8,500 -98 Descending Minneapolis Center
Mon 10:10:32 AM 47.2197 -97.5897 203° Southwest 108 124 8,400  Descending Minneapolis Center
Mon 10:11:33 AM 47.1914 -97.6039 199° South 107 123 8,500 49 Climbing Minneapolis Center
Mon 10:12:35 AM 47.1658 -97.6197 203° Southwest 100 115 8,500  Level Minneapolis Center
Mon 10:13:36 AM 47.1444 -97.6389 211° Southwest 98 113 8,500  Level Minneapolis Center
Mon 10:14:37 AM 47.1189 -97.6542 202° Southwest 95 109 8,500 49 Level Minneapolis Center
Mon 10:15:39 AM 47.0919 -97.6708 203° Southwest 96 110 8,600  Climbing Minneapolis Center
Mon 10:16:40 AM 47.0675 -97.6842 200° South 97 112 8,500 -49 Descending Minneapolis Center
Mon 10:17:41 AM 47.0386 -97.6972 197° South 101 116 8,500  Level Minneapolis Center
Mon 10:18:43 AM 47.0117 -97.7108 199° South 100 115 8,500  Level Minneapolis Center
Mon 10:19:44 AM 46.9842 -97.7250 199° South 100 115 8,500  Level Minneapolis Center
Mon 10:20:45 AM 46.9597 -97.7392 202° Southwest 100 115 8,500 -49 Level Minneapolis Center
Mon 10:21:47 AM 46.9308 -97.7522 197° South 101 116 8,400 -49 Descending Minneapolis Center
Mon 10:22:48 AM 46.9019 -97.7664 199° South 103 119 8,400  Level Minneapolis Center
Mon 10:23:49 AM 46.8744 -97.7781 196° South 104 120 8,400 49 Level Minneapolis Center
Mon 10:24:51 AM 46.8453 -97.7883 194° South 104 120 8,500 49 Climbing Minneapolis Center
Mon 10:25:52 AM 46.8228 -97.8061 208° Southwest 100 115 8,500 49 Level Minneapolis Center
Mon 10:26:54 AM 46.7997 -97.8247 209° Southwest 97 112 8,600  Climbing Minneapolis Center
Mon 10:27:55 AM 46.7736 -97.8417 204° Southwest 97 112 8,500 -98 Descending Minneapolis Center
Mon 10:28:56 AM 46.7456 -97.8592 203° Southwest 102 117 8,400 -49 Descending Minneapolis Center
Mon 10:29:58 AM 46.7197 -97.8758 204° Southwest 104 120 8,400 49 Level Minneapolis Center
Mon 10:30:59 AM 46.6914 -97.8908 200° South 104 120 8,500 49 Climbing Minneapolis Center
Mon 10:32:00 AM 46.6569 -97.9039 195° South 104 120 8,500  Level Minneapolis Center
Mon 10:33:02 AM 46.6308 -97.9194 202° Southwest 104 120 8,500 -49 Level Minneapolis Center
Mon 10:34:03 AM 46.6047 -97.9364 204° Southwest 104 120 8,400 49 Descending Minneapolis Center
Mon 10:35:04 AM 46.5775 -97.9533 203° Southwest 104 120 8,600  Climbing Minneapolis Center
Mon 10:36:06 AM 46.5469 -97.9647 194° South 106 122 8,400 -98 Descending Minneapolis Center
Mon 10:37:07 AM 46.5156 -97.9794 198° South 112 129 8,400  Level Minneapolis Center
Mon 10:38:09 AM 46.4847 -97.9939 198° South 113 130 8,400  Level Minneapolis Center
Mon 10:39:10 AM 46.4536 -98.0042 193° South 113 130 8,400 -49 Level Minneapolis Center
Mon 10:40:11 AM 46.4228 -98.0142 193° South 113 130 8,300 -98 Descending Minneapolis Center
Mon 10:41:13 AM 46.3864 -98.0303 197° South 113 130 8,200 -146 Descending Minneapolis Center
Mon 10:42:14 AM 46.3542 -98.0467 199° South 116 133 8,000 -98 Descending Minneapolis Center
Mon 10:43:15 AM 46.3256 -98.0647 204° Southwest 116 133 8,000 98 Level Minneapolis Center
Mon 10:44:17 AM 46.3033 -98.0819 208° Southwest 100 115 8,200 98 Climbing Minneapolis Center
Mon 10:45:18 AM 46.2867 -98.1033 222° Southwest 89 102 8,200 49 Level Minneapolis Center
Mon 10:46:20 AM 46.2661 -98.1192 208° Southwest 86 99 8,300 49 Climbing Minneapolis Center
Mon 10:47:21 AM 46.2431 -98.1344 205° Southwest 86 99 8,300 98 Level Minneapolis Center
Mon 10:48:23 AM 46.2183 -98.1472 200° South 89 102 8,500 98 Climbing Minneapolis Center
Mon 10:49:24 AM 46.1928 -98.1650 206° Southwest 89 102 8,500  Level Minneapolis Center
Mon 10:50:25 AM 46.1675 -98.1781 200° South 90 104 8,500  Level Minneapolis Center
Mon 10:51:27 AM 46.1408 -98.1881 195° South 95 109 8,500  Level Minneapolis Center
Mon 10:52:28 AM 46.1150 -98.2044 204° Southwest 98 113 8,500 49 Level Minneapolis Center
Mon 10:53:30 AM 46.0922 -98.2214 207° Southwest 98 113 8,600  Climbing Minneapolis Center
Mon 10:54:31 AM 46.0642 -98.2339 197° South 100 115 8,500 -49 Descending Minneapolis Center
Mon 10:55:33 AM 46.0314 -98.2503 199° South 102 117 8,500  Level Minneapolis Center
Mon 10:56:34 AM 46.0039 -98.2667 202° Southwest 102 117 8,500  Level Minneapolis Center
Mon 10:57:36 AM 45.9764 -98.2831 202° Southwest 104 120 8,500 49 Level Minneapolis Center
Mon 10:58:37 AM 45.9503 -98.2978 201° Southwest 104 120 8,600 49 Climbing Minneapolis Center
Mon 10:59:39 AM 45.9225 -98.3106 198° South 104 120 8,600 -49 Level Minneapolis Center
Mon 11:00:40 AM 45.8942 -98.3236 198° South 104 120 8,500 -98 Descending Minneapolis Center
Mon 11:01:42 AM 45.8653 -98.3383 200° South 107 123 8,400  Descending Minneapolis Center
Mon 11:02:44 AM 45.8392 -98.3547 204° Southwest 107 123 8,500 98 Climbing Minneapolis Center
Mon 11:03:45 AM 45.8047 -98.3700 197° South 107 123 8,600 49 Climbing Minneapolis Center
Mon 11:04:47 AM 45.7769 -98.3881 204° Southwest 108 124 8,600 -49 Level Minneapolis Center
Mon 11:05:48 AM 45.7475 -98.4039 201° Southwest 109 125 8,500 -49 Descending Minneapolis Center
Mon 11:06:50 AM 45.7181 -98.4197 201° Southwest 110 127 8,500  Level Minneapolis Center
Mon 11:07:51 AM 45.6881 -98.4350 200° South 111 128 8,500 49 Level Minneapolis Center
Mon 11:08:53 AM 45.6575 -98.4481 197° South 111 128 8,600 49 Climbing Minneapolis Center
Mon 11:09:54 AM 45.6275 -98.4608 197° South 111 128 8,600  Level Minneapolis Center
Mon 11:10:56 AM 45.5975 -98.4728 196° South 111 128 8,600  Level Minneapolis Center
Mon 11:11:57 AM 45.5617 -98.4869 195° South 111 128 8,600  Level Minneapolis Center
Mon 11:12:59 AM 45.5311 -98.5025 200° South 111 128 8,600  Level Minneapolis Center
Mon 11:14:00 AM 45.5031 -98.5175 201° Southwest 111 128 8,600  Level Minneapolis Center
Mon 11:15:02 AM 45.4761 -98.5333 202° Southwest 111 128 8,600  Level Minneapolis Center
Mon 11:16:03 AM 45.4489 -98.5458 198° South 109 125 8,600 -49 Level Minneapolis Center
Mon 11:17:05 AM 45.4222 -98.5631 204° Southwest 109 125 8,500 -49 Descending Minneapolis Center
Mon 11:18:06 AM 45.3964 -98.5792 204° Southwest 107 123 8,500 49 Level Minneapolis Center
Mon 11:19:08 AM 45.3689 -98.5889 194° South 105 121 8,600  Climbing Minneapolis Center
Mon 11:20:09 AM 45.3364 -98.6031 197° South 104 120 8,500  Descending Minneapolis Center
Mon 11:21:11 AM 45.3092 -98.6158 198° South 104 120 8,600 48 Climbing Minneapolis Center
Mon 11:22:13 AM 45.2842 -98.6300 202° Southwest 104 120 8,600  Level Minneapolis Center
Mon 11:23:14 AM 45.2583 -98.6439 201° Southwest 103 119 8,600  Level Minneapolis Center
Mon 11:24:16 AM 45.2317 -98.6622 206° Southwest 103 119 8,600  Level Minneapolis Center
Mon 11:25:17 AM 45.2050 -98.6758 200° South 103 119 8,600  Level Minneapolis Center
Mon 11:26:19 AM 45.1794 -98.6889 200° South 103 119 8,600  Level Minneapolis Center
Mon 11:27:20 AM 45.1522 -98.7006 197° South 103 119 8,600  Level Minneapolis Center
Mon 11:28:22 AM 45.1225 -98.7197 204° Southwest 102 117 8,600 49 Level Minneapolis Center
Mon 11:29:23 AM 45.1017 -98.7303 200° South 102 117 8,700 49 Climbing Minneapolis Center
Mon 11:30:25 AM 45.0686 -98.7458 198° South 102 117 8,700 -49 Level Minneapolis Center
Mon 11:31:26 AM 45.0442 -98.7608 203° Southwest 102 117 8,600 -49 Descending Minneapolis Center
Mon 11:32:28 AM 45.0158 -98.7747 199° South 102 117 8,600 -48 Level Minneapolis Center
Mon 11:33:30 AM 44.9858 -98.7847 193° South 103 119 8,500 -49 Descending Minneapolis Center
Mon 11:34:31 AM 44.9592 -98.8003 202° Southwest 105 121 8,500  Level Minneapolis Center
Mon 11:35:33 AM 44.9322 -98.8153 202° Southwest 105 121 8,500  Level Minneapolis Center
Mon 11:36:34 AM 44.8997 -98.8308 199° South 105 121 8,500 49 Level Minneapolis Center
Mon 11:37:36 AM 44.8714 -98.8403 193° South 105 121 8,600  Climbing Minneapolis Center
Mon 11:38:37 AM 44.8461 -98.8578 206° Southwest 105 121 8,500 -49 Descending Minneapolis Center
Mon 11:39:39 AM 44.8200 -98.8764 207° Southwest 105 121 8,500  Level Minneapolis Center
Mon 11:40:40 AM 44.7933 -98.8878 197° South 105 121 8,500 -97 Level Minneapolis Center
Mon 11:41:43 AM 44.7658 -98.9036 202° Southwest 105 121 8,300 -145 Descending Minneapolis Center
Mon 11:42:44 AM 44.7372 -98.9186 200° South 105 121 8,200 -49 Descending Minneapolis Center
Mon 11:43:46 AM 44.7061 -98.9347 200° South 105 121 8,200  Level Minneapolis Center
Mon 11:44:47 AM 44.6775 -98.9436 192° South 105 121 8,200  Level Minneapolis Center
Mon 11:45:49 AM 44.6536 -98.9581 203° Southwest 102 117 8,200 49 Level Minneapolis Center
Mon 11:46:50 AM 44.6303 -98.9764 209° Southwest 99 114 8,300 49 Climbing Minneapolis Center
Mon 11:47:52 AM 44.6006 -98.9875 195° South 100 115 8,300 48 Level Minneapolis Center
Mon 11:48:54 AM 44.5764 -98.9997 200° South 103 119 8,400 98 Climbing Minneapolis Center
Mon 11:49:55 AM 44.5519 -99.0131 201° Southwest 96 110 8,500 -49 Climbing Minneapolis Center
Mon 11:50:57 AM 44.5253 -99.0244 197° South 96 110 8,300 -293 Descending Minneapolis Center
Mon 11:51:58 AM 44.4908 -99.0439 202° Southwest 100 115 7,900 -439 Descending Minneapolis Center
Mon 11:53:00 AM 44.4594 -99.0603 200° South 110 127 7,400 -341 Descending Minneapolis Center
Mon 11:54:01 AM 44.4275 -99.0775 201° Southwest 116 133 7,200 -49 Descending Minneapolis Center
Mon 11:55:03 AM 44.3975 -99.0922 199° South 117 135 7,300 -48 Climbing Minneapolis Center
Mon 11:56:05 AM 44.3733 -99.1064 203° Southwest 110 127 7,100 -146 Descending Minneapolis Center
Mon 11:57:06 AM 44.3472 -99.1194 200° South 105 121 7,000 -49 Descending Minneapolis Center
Mon 11:58:08 AM 44.3208 -99.1331 200° South 104 120 7,000 -146 Level Minneapolis Center
Mon 11:59:09 AM 44.2931 -99.1467 199° South 104 120 6,700 -195 Descending Minneapolis Center
Mon 12:00:11 PM 44.2631 -99.1589 196° South 105 121 6,600 -49 Descending Minneapolis Center
Mon 12:01:12 PM 44.2294 -99.1750 199° South 106 122 6,600  Level Minneapolis Center
Mon 12:02:14 PM 44.2069 -99.1914 208° Southwest 103 119 6,600 -49 Level Minneapolis Center
Mon 12:03:15 PM 44.1828 -99.2106 210° Southwest 100 115 6,500 -98 Descending Minneapolis Center
Mon 12:04:17 PM 44.1564 -99.2239 200° South 100 115 6,400  Descending Minneapolis Center
Mon 12:05:19 PM 44.1297 -99.2347 196° South 100 115 6,500 49 Climbing Minneapolis Center
Mon 12:06:20 PM 44.1058 -99.2483 202° Southwest 99 114 6,500 -49 Level Minneapolis Center
Mon 12:07:22 PM 44.0800 -99.2656 206° Southwest 99 114 6,400  Descending Minneapolis Center
Mon 12:08:23 PM 44.0544 -99.2872 211° Southwest 97 112 6,500 49 Climbing Minneapolis Center
Mon 12:09:25 PM 44.0306 -99.3047 208° Southwest 95 109 6,500 -49 Level Minneapolis Center
Mon 12:10:26 PM 44.0050 -99.3183 201° Southwest 96 110 6,400 -49 Descending Minneapolis Center
Mon 12:11:28 PM 43.9786 -99.3300 198° South 96 110 6,400  Level Minneapolis Center
Mon 12:12:29 PM 43.9528 -99.3433 200° South 97 112 6,400  Level Minneapolis Center
Mon 12:13:31 PM 43.9253 -99.3586 202° Southwest 99 114 6,400  Level Minneapolis Center
Mon 12:14:32 PM 43.8989 -99.3708 198° South 99 114 6,400  Level Minneapolis Center
Mon 12:15:34 PM 43.8731 -99.3789 193° South 99 114 6,400 -48 Level Minneapolis Center
Mon 12:16:36 PM 43.8431 -99.3947 201° Southwest 99 114 6,300 -49 Descending Minneapolis Center
Mon 12:17:37 PM 43.8183 -99.4075 200° South 99 114 6,300 -49 Level Minneapolis Center
Mon 12:18:39 PM 43.7967 -99.4247 210° Southwest 95 109 6,200 -98 Descending Minneapolis Center
Mon 12:19:40 PM 43.7728 -99.4400 205° Southwest 94 108 6,100 49 Descending Minneapolis Center
Mon 12:20:42 PM 43.7497 -99.4489 196° South 94 108 6,300 145 Climbing Minneapolis Center
Mon 12:21:44 PM 43.7317 -99.4575 199° South 84 97 6,400 49 Climbing Minneapolis Center
Mon 12:22:45 PM 43.7122 -99.4736 211° Southwest 80 92 6,400  Level Minneapolis Center
Mon 12:23:47 PM 43.6900 -99.4856 201° Southwest 80 92 6,400  Level Minneapolis Center
Mon 12:24:49 PM 43.6639 -99.4989 200° South 81 93 6,400  Level Minneapolis Center
Mon 12:25:50 PM 43.6433 -99.5106 202° Southwest 81 93 6,400  Level Minneapolis Center
Mon 12:26:52 PM 43.6208 -99.5242 204° Southwest 81 93 6,400  Level Minneapolis Center
Mon 12:27:54 PM 43.6031 -99.5322 198° South 81 93 6,400  Level Minneapolis Center
Mon 12:28:55 PM 43.5817 -99.5394 194° South 80 92 6,400 -49 Level Minneapolis Center
Mon 12:29:57 PM 43.5611 -99.5475 196° South 80 92 6,300 -48 Descending Minneapolis Center
Mon 12:30:59 PM 43.5386 -99.5572 197° South 80 92 6,300 -97 Level Minneapolis Center
Mon 12:32:01 PM 43.5117 -99.5656 193° South 80 92 6,100 -49 Descending Minneapolis Center
Mon 12:33:02 PM 43.4914 -99.5747 198° South 80 92 6,200 49 Climbing Minneapolis Center
Mon 12:34:04 PM 43.4733 -99.5889 210° Southwest 79 91 6,200  Level Minneapolis Center
Mon 12:35:06 PM 43.4536 -99.6039 209° Southwest 79 91 6,200 -48 Level Minneapolis Center
Mon 12:36:08 PM 43.4342 -99.6181 208° Southwest 79 91 6,100  Descending Minneapolis Center
Mon 12:37:09 PM 43.4139 -99.6322 207° Southwest 79 91 6,200  Climbing Minneapolis Center
Mon 12:38:11 PM 43.3933 -99.6411 197° South 79 91 6,100 -97 Descending Minneapolis Center
Mon 12:39:13 PM 43.3678 -99.6489 192° South 79 91 6,000 -48 Descending Minneapolis Center
Mon 12:40:15 PM 43.3469 -99.6586 199° South 79 91 6,000  Level Minneapolis Center
Mon 12:41:17 PM 43.3239 -99.6661 193° South 79 91 6,000  Level Minneapolis Center
Mon 12:42:19 PM 43.3036 -99.6731 194° South 79 91 6,000  Level Minneapolis Center
Mon 12:44:00 PM 43.2580 -99.6932 198° South  Level FlightAware Approximate
Mon 12:51:00 PM 43.0659 -99.7721 196° South  Level FlightAware Approximate
Mon 12:52:00 PM 43.0385 -99.7827 196° South  Level FlightAware Approximate
Mon 12:53:00 PM 43.0111 -99.7932 196° South  Level FlightAware Approximate
Mon 12:54:00 PM 42.9837 -99.8037 196° South  Level FlightAware Approximate
Mon 12:55:00 PM 42.9563 -99.8143 196° South  Level FlightAware Approximate
Mon 12:56:00 PM 42.9294 -99.8270 200° South  Level FlightAware Approximate
Mon 12:57:00 PM 42.9026 -99.8404 200° South  Level FlightAware Approximate
Mon 12:58:00 PM 42.8759 -99.8538 200° South  Level FlightAware Approximate
Mon 12:59:00 PM 42.8492 -99.8671 200° South  Level FlightAware Approximate
Mon 01:00:00 PM 42.8224 -99.8805 200° South  Level FlightAware Approximate
Mon 01:01:00 PM 42.7957 -99.8939 200° South  Level FlightAware Approximate
Mon 01:02:00 PM 42.7688 -99.9068 199° South  Level FlightAware Approximate
Mon 01:03:00 PM 42.7419 -99.9193 199° South  Level FlightAware Approximate
Mon 01:04:00 PM 42.7149 -99.9318 199° South  Level FlightAware Approximate
Mon 01:05:00 PM 42.6880 -99.9443 199° South  Level FlightAware Approximate
Mon 01:06:00 PM 42.6610 -99.9568 199° South  Level FlightAware Approximate
Mon 01:07:00 PM 42.6340 -99.9692 199° South  Level FlightAware Approximate
Mon 01:08:00 PM 42.6071 -99.9817 199° South  Level FlightAware Approximate
Mon 01:09:00 PM 42.5801 -99.9942 199° South  Level FlightAware Approximate
Mon 01:10:00 PM 42.5532 -100.0066 199° South  Level FlightAware Approximate
Mon 01:11:00 PM 42.5262 -100.0190 199° South  Level FlightAware Approximate
Mon 01:12:00 PM 42.4992 -100.0315 199° South  Level FlightAware Approximate
Mon 01:13:00 PM 42.4723 -100.0439 199° South  Level FlightAware Approximate
Mon 01:14:00 PM 42.4453 -100.0563 199° South  Level FlightAware Approximate
Mon 01:15:00 PM 42.4183 -100.0687 199° South  Level FlightAware Approximate
Mon 01:16:00 PM 42.3913 -100.0810 199° South  Level FlightAware Approximate
Mon 01:17:00 PM 42.3644 -100.0934 199° South  Level FlightAware Approximate
Mon 01:18:00 PM 42.3374 -100.1059 199° South  Level FlightAware Approximate
Mon 01:19:00 PM 42.3105 -100.1184 199° South  Level FlightAware Approximate
Mon 01:20:00 PM 42.2835 -100.1309 199° South  Level FlightAware Approximate
Mon 01:21:00 PM 42.2566 -100.1433 199° South  Level FlightAware Approximate
Mon 01:22:00 PM 42.2297 -100.1558 199° South  Level FlightAware Approximate
Mon 01:23:00 PM 42.2027 -100.1683 199° South  Level FlightAware Approximate
Mon 01:24:00 PM 42.1758 -100.1808 199° South  Level FlightAware Approximate
Mon 01:25:00 PM 42.1488 -100.1932 199° South  Level FlightAware Approximate
Mon 01:26:00 PM 42.1219 -100.2056 199° South  Level FlightAware Approximate
Mon 01:27:00 PM 42.0950 -100.2181 199° South  Level FlightAware Approximate
Mon 01:28:00 PM 42.0680 -100.2305 199° South  Level FlightAware Approximate
Mon 01:29:00 PM 42.0411 -100.2429 199° South  Level FlightAware Approximate
Mon 01:30:00 PM 42.0141 -100.2553 199° South  Level FlightAware Approximate
Mon 01:31:00 PM 41.9872 -100.2677 199° South  Level FlightAware Approximate
Mon 01:32:00 PM 41.9602 -100.2800 199° South  Level FlightAware Approximate
Mon 01:33:00 PM 41.9333 -100.2924 199° South  Level FlightAware Approximate
Mon 01:34:00 PM 41.9064 -100.3051 200° South  Level FlightAware Approximate
Mon 01:35:00 PM 41.8797 -100.3185 200° South  Level FlightAware Approximate
Mon 01:36:00 PM 41.8530 -100.3318 200° South  Level FlightAware Approximate
Mon 01:37:00 PM 41.8264 -100.3452 200° South  Level FlightAware Approximate
Mon 01:38:00 PM 41.7997 -100.3585 200° South  Level FlightAware Approximate
Mon 01:39:00 PM 41.7728 -100.3714 198° South  Level FlightAware Approximate
Mon 01:40:00 PM 41.7458 -100.3835 198° South  Level FlightAware Approximate
Mon 01:41:00 PM 41.7188 -100.3955 198° South  Level FlightAware Approximate
Mon 01:42:00 PM 41.6918 -100.4076 198° South  Level FlightAware Approximate
Mon 01:43:00 PM 41.6648 -100.4196 198° South  Level FlightAware Approximate
Mon 01:44:00 PM 41.6378 -100.4317 198° South  Level FlightAware Approximate
Mon 01:45:00 PM 41.6107 -100.4437 198° South  Level FlightAware Approximate
Mon 01:46:00 PM 41.5837 -100.4557 198° South  Level FlightAware Approximate
Mon 01:47:00 PM 41.5567 -100.4678 198° South  Level FlightAware Approximate
Mon 01:48:00 PM 41.5297 -100.4798 198° South  Level FlightAware Approximate
Mon 01:49:00 PM 41.5026 -100.4918 198° South  Level FlightAware Approximate
Mon 01:50:00 PM 41.4756 -100.5038 198° South  Level FlightAware Approximate
Mon 01:51:00 PM 41.4486 -100.5157 198° South  Level FlightAware Approximate
Mon 01:52:00 PM 41.4216 -100.5277 198° South  Level FlightAware Approximate
Mon 01:53:00 PM 41.3945 -100.5396 198° South  Level FlightAware Approximate
Mon 01:54:00 PM 41.3675 -100.5516 198° South  Level FlightAware Approximate
Mon 01:55:00 PM 41.3405 -100.5635 198° South  Level FlightAware Approximate
Mon 01:56:00 PM 41.3137 -100.5765 201° Southwest  Level FlightAware Approximate
Mon 01:57:00 PM 41.2871 -100.5898 201° Southwest  Level FlightAware Approximate
Mon 01:58:00 PM 41.2604 -100.6032 201° Southwest  Level FlightAware Approximate
Mon 01:59:00 PM 41.2337 -100.6165 201° Southwest  Level FlightAware Approximate
Mon 02:00:00 PM 41.2071 -100.6298 201° Southwest  Level FlightAware Approximate
Mon 02:01:00 PM 41.1809 -100.6448 204° Southwest  Level FlightAware Approximate
Mon 02:02:00 PM 41.1550 -100.6604 204° Southwest  Level FlightAware Approximate
Mon 02:03:00 PM 41.1290 -100.6759 204° Southwest  Level FlightAware Approximate
Mon 02:04:00 PM 41.1167 -100.6833 204° Southwest  Level FlightAware Approximate
Mon 02:05:00 PM 41.1262 -100.6837 204° Southwest  Level Estimated
Mon 02:06:00 PM 41.1262 -100.6837 204° Southwest  Level Estimated
Mon 02:07:00 PM 41.1262 -100.6837 204° Southwest  Level Estimated
Mon 02:08:00 PM 41.1262 -100.6837 204° Southwest  Level Estimated
Mon 02:09:00 PM 41.1262 -100.6837 204° Southwest  Level Estimated
Mon 02:10:00 PM 41.1262 -100.6837 204° Southwest  Level Estimated
Mon 02:11:00 PM 41.1262 -100.6837 204° Southwest  Level Estimated
Mon 02:12:00 PM 41.1262 -100.6837 204° Southwest  Level Estimated
Mon 02:13:00 PM 41.1262 -100.6837 204° Southwest  Level Estimated
Mon 02:14:00 PM 41.1262 -100.6837 204° Southwest  Level Estimated
Mon 02:15:00 PM 41.1262 -100.6837 204° Southwest  Level Estimated
Mon 02:16:00 PM 41.1262 -100.6837 204° Southwest  Level Estimated
Mon 02:17:00 PM 41.1262 -100.6837 204° Southwest  Level Estimated
Mon 02:18:00 PM 41.1262 -100.6837 204° Southwest  Level Estimated
Mon 02:19:00 PM 41.1262 -100.6837 204° Southwest  Level Estimated
Mon 02:20:00 PM 41.1262 -100.6837 204° Southwest  Level Estimated
Mon 02:21:00 PM 41.1262 -100.6837 204° Southwest  Level Estimated
Mon 02:22:00 PM 41.1262 -100.6837 204° Southwest  Level Estimated
Mon 02:23:00 PM 41.1262 -100.6837 204° Southwest  Level Estimated
Mon 02:24:00 PM 41.1262 -100.6837 204° Southwest  Level Estimated

Login

Don't have an account? Register now (free) for customized features, flight alerts, and more!